MROC/SJO METAR and TAF weather

Enter ICAO airport designator
Station Type Date Time Source
MROC METAR 2020/01/20 10:00 UTC NOAA

MROC 201000Z 04006KT 360V110 CAVOK 22/17 A2995 NOSIG


Station Type Date Time Source
MROC Decoded METAR 2020/01/20 10:00 UTC NOAA

Juan Santamaria, Costa Rica (MROC) 10-00N 084-13W 939M
Jan 20, 2020 - 05:00 AM EST / 2020.01.20 1000 UTC
Wind: from the NE (040 degrees) at 7 MPH (6 KT) (direction variable):0
Visibility: greater than 7 mile(s):0
Temperature: 71 F (22 C)
Dew Point: 62 F (17 C)
Relative Humidity: 73%
Pressure (altimeter): 29.95 in. Hg (1014 hPa)
ob: MROC 201000Z 04006KT 360V110 CAVOK 22/17 A2995 NOSIG
cycle: 10

Station Type Date Time Source
MROC TAF 2020/01/20 06:21 UTC NOAA

TAF MROC 200517Z 2006/2106 11014KT 9999 FEW030 SCT100 TX29/2018Z TN21/2011Z
TEMPO 2006/2024 10015G25KT

Example: see airport list